sensor_id;sensor_type;location;lat;lon;timestamp;pressure;altitude;pressure_sealevel;temperature;humidity
69153;BME280;56261;51.580;4.578;2023-02-17T00:00:56;102116.66;;;10.25;100.00
69153;BME280;56261;51.580;4.578;2023-02-17T00:03:23;102118.22;;;10.27;100.00
69153;BME280;56261;51.580;4.578;2023-02-17T00:05:48;102115.31;;;10.30;100.00
69153;BME280;56261;51.580;4.578;2023-02-17T00:08:14;102112.31;;;10.24;100.00
69153;BME280;56261;51.580;4.578;2023-02-17T00:10:39;102115.09;;;10.22;100.00
69153;BME280;56261;51.580;4.578;2023-02-17T00:13:05;102114.66;;;10.17;100.00
69153;BME280;56261;51.580;4.578;2023-02-17T00:15:30;102103.19;;;10.26;100.00
69153;BME280;56261;51.580;4.578;2023-02-17T00:17:55;102107.81;;;10.24;100.00
69153;BME280;56261;51.580;4.578;2023-02-17T00:20:21;102096.19;;;10.25;100.00
69153;BME280;56261;51.580;4.578;2023-02-17T00:22:46;102110.34;;;10.16;100.00
69153;BME280;56261;51.580;4.578;2023-02-17T00:25:12;102099.38;;;10.19;100.00
69153;BME280;56261;51.580;4.578;2023-02-17T00:27:37;102092.50;;;10.16;100.00
69153;BME280;56261;51.580;4.578;2023-02-17T00:30:03;102089.97;;;10.15;100.00
69153;BME280;56261;51.580;4.578;2023-02-17T00:32:28;102084.75;;;10.13;100.00
69153;BME280;56261;51.580;4.578;2023-02-17T00:34:54;102089.44;;;10.21;100.00
69153;BME280;56261;51.580;4.578;2023-02-17T00:37:21;102094.75;;;10.21;100.00
69153;BME280;56261;51.580;4.578;2023-02-17T00:39:46;102083.25;;;10.21;100.00
69153;BME280;56261;51.580;4.578;2023-02-17T00:42:11;102091.09;;;10.12;100.00
69153;BME280;56261;51.580;4.578;2023-02-17T00:44:37;102097.56;;;10.19;100.00
69153;BME280;56261;51.580;4.578;2023-02-17T00:47:03;102084.63;;;10.15;100.00
69153;BME280;56261;51.580;4.578;2023-02-17T00:49:29;102091.38;;;10.19;100.00
69153;BME280;56261;51.580;4.578;2023-02-17T00:51:54;102084.50;;;10.16;100.00
69153;BME280;56261;51.580;4.578;2023-02-17T00:54:19;102091.78;;;10.14;100.00
69153;BME280;56261;51.580;4.578;2023-02-17T00:56:45;102081.84;;;10.16;100.00
69153;BME280;56261;51.580;4.578;2023-02-17T00:59:11;102081.53;;;10.10;100.00
69153;BME280;56261;51.580;4.578;2023-02-17T01:01:37;102077.63;;;10.14;100.00
69153;BME280;56261;51.580;4.578;2023-02-17T01:04:03;102075.50;;;10.08;100.00
69153;BME280;56261;51.580;4.578;2023-02-17T01:06:32;102083.38;;;10.09;100.00
69153;BME280;56261;51.580;4.578;2023-02-17T01:08:58;102097.25;;;10.13;100.00
69153;BME280;56261;51.580;4.578;2023-02-17T01:11:28;102086.88;;;10.10;100.00
69153;BME280;56261;51.580;4.578;2023-02-17T01:13:55;102077.03;;;10.10;100.00
69153;BME280;56261;51.580;4.578;2023-02-17T01:16:24;102082.97;;;10.14;100.00
69153;BME280;56261;51.580;4.578;2023-02-17T01:18:50;102088.81;;;10.08;100.00
69153;BME280;56261;51.580;4.578;2023-02-17T01:21:18;102083.63;;;10.06;100.00
69153;BME280;56261;51.580;4.578;2023-02-17T01:23:43;102085.28;;;9.97;100.00
69153;BME280;56261;51.580;4.578;2023-02-17T01:26:16;102088.53;;;10.01;100.00
69153;BME280;56261;51.580;4.578;2023-02-17T01:28:42;102093.72;;;10.03;100.00
69153;BME280;56261;51.580;4.578;2023-02-17T01:31:09;102096.94;;;10.06;100.00
69153;BME280;56261;51.580;4.578;2023-02-17T01:33:35;102099.78;;;10.05;100.00
69153;BME280;56261;51.580;4.578;2023-02-17T01:36:02;102102.56;;;10.03;100.00
69153;BME280;56261;51.580;4.578;2023-02-17T01:38:27;102104.09;;;10.06;100.00
69153;BME280;56261;51.580;4.578;2023-02-17T01:40:53;102102.28;;;10.06;100.00
69153;BME280;56261;51.580;4.578;2023-02-17T01:43:19;102112.22;;;10.04;100.00
69153;BME280;56261;51.580;4.578;2023-02-17T01:45:52;102126.28;;;10.06;100.00
69153;BME280;56261;51.580;4.578;2023-02-17T01:48:24;102105.78;;;10.07;100.00
69153;BME280;56261;51.580;4.578;2023-02-17T01:51:15;102089.19;;;9.93;100.00
69153;BME280;56261;51.580;4.578;2023-02-17T01:56:25;102099.91;;;10.03;100.00
69153;BME280;56261;51.580;4.578;2023-02-17T01:59:02;102095.81;;;9.99;100.00
69153;BME280;56261;51.580;4.578;2023-02-17T02:01:30;102090.19;;;10.02;100.00
69153;BME280;56261;51.580;4.578;2023-02-17T02:03:57;102088.81;;;9.98;100.00
69153;BME280;56261;51.580;4.578;2023-02-17T02:06:26;102082.91;;;10.04;100.00
69153;BME280;56261;51.580;4.578;2023-02-17T02:09:00;102080.81;;;9.98;100.00
69153;BME280;56261;51.580;4.578;2023-02-17T02:11:27;102081.66;;;9.98;100.00
69153;BME280;56261;51.580;4.578;2023-02-17T02:13:52;102078.69;;;10.02;100.00
69153;BME280;56261;51.580;4.578;2023-02-17T02:29:59;102047.84;;;9.99;100.00
69153;BME280;56261;51.580;4.578;2023-02-17T02:37:40;102048.66;;;9.90;100.00
69153;BME280;56261;51.580;4.578;2023-02-17T02:40:08;102039.94;;;9.88;100.00
69153;BME280;56261;51.580;4.578;2023-02-17T02:42:35;102035.31;;;9.80;100.00
69153;BME280;56261;51.580;4.578;2023-02-17T02:45:01;102037.00;;;9.91;100.00
69153;BME280;56261;51.580;4.578;2023-02-17T02:47:52;102039.25;;;9.86;100.00
69153;BME280;56261;51.580;4.578;2023-02-17T02:56:13;102031.66;;;9.81;100.00
69153;BME280;56261;51.580;4.578;2023-02-17T03:01:49;102023.53;;;9.83;100.00
69153;BME280;56261;51.580;4.578;2023-02-17T03:07:00;102018.03;;;9.84;100.00
69153;BME280;56261;51.580;4.578;2023-02-17T03:09:27;102028.44;;;9.87;100.00
69153;BME280;56261;51.580;4.578;2023-02-17T03:11:57;102025.63;;;9.89;100.00
69153;BME280;56261;51.580;4.578;2023-02-17T03:14:23;102028.44;;;9.87;100.00
69153;BME280;56261;51.580;4.578;2023-02-17T03:16:49;102025.91;;;9.86;100.00
69153;BME280;56261;51.580;4.578;2023-02-17T03:19:17;102017.34;;;9.82;100.00
69153;BME280;56261;51.580;4.578;2023-02-17T03:21:52;102007.66;;;9.81;100.00
69153;BME280;56261;51.580;4.578;2023-02-17T03:24:19;101999.81;;;9.80;100.00
69153;BME280;56261;51.580;4.578;2023-02-17T03:26:44;102005.44;;;9.86;100.00
69153;BME280;56261;51.580;4.578;2023-02-17T03:29:10;101982.69;;;9.82;100.00
69153;BME280;56261;51.580;4.578;2023-02-17T03:31:35;101994.34;;;9.81;100.00
69153;BME280;56261;51.580;4.578;2023-02-17T03:34:02;102005.00;;;9.81;100.00
69153;BME280;56261;51.580;4.578;2023-02-17T03:36:27;102005.13;;;9.80;100.00
69153;BME280;56261;51.580;4.578;2023-02-17T03:38:54;102004.88;;;9.83;100.00
69153;BME280;56261;51.580;4.578;2023-02-17T03:41:20;102000.97;;;9.87;100.00
69153;BME280;56261;51.580;4.578;2023-02-17T03:43:45;101997.84;;;9.82;100.00
69153;BME280;56261;51.580;4.578;2023-02-17T03:46:12;101985.81;;;9.87;100.00
69153;BME280;56261;51.580;4.578;2023-02-17T03:48:38;102000.56;;;9.91;100.00
69153;BME280;56261;51.580;4.578;2023-02-17T03:51:20;101996.88;;;9.83;100.00
69153;BME280;56261;51.580;4.578;2023-02-17T03:53:47;102000.81;;;9.88;100.00
69153;BME280;56261;51.580;4.578;2023-02-17T03:56:13;102001.50;;;9.81;100.00
69153;BME280;56261;51.580;4.578;2023-02-17T03:58:39;102006.13;;;9.88;100.00
69153;BME280;56261;51.580;4.578;2023-02-17T04:01:06;102006.13;;;9.88;100.00
69153;BME280;56261;51.580;4.578;2023-02-17T04:03:33;102004.72;;;9.84;100.00
69153;BME280;56261;51.580;4.578;2023-02-17T04:05:58;102011.88;;;9.84;100.00
69153;BME280;56261;51.580;4.578;2023-02-17T04:08:24;101987.06;;;9.83;100.00
69153;BME280;56261;51.580;4.578;2023-02-17T04:10:54;102009.81;;;9.87;100.00
69153;BME280;56261;51.580;4.578;2023-02-17T04:13:20;101986.47;;;9.80;100.00
69153;BME280;56261;51.580;4.578;2023-02-17T04:15:45;102005.44;;;9.86;100.00
69153;BME280;56261;51.580;4.578;2023-02-17T04:18:11;102020.72;;;9.84;100.00
69153;BME280;56261;51.580;4.578;2023-02-17T04:20:36;102011.63;;;9.87;100.00
69153;BME280;56261;51.580;4.578;2023-02-17T04:23:02;102021.41;;;9.86;100.00
69153;BME280;56261;51.580;4.578;2023-02-17T04:25:27;102028.56;;;9.86;100.00
69153;BME280;56261;51.580;4.578;2023-02-17T04:27:53;102024.09;;;9.86;100.00
69153;BME280;56261;51.580;4.578;2023-02-17T04:30:18;102022.00;;;9.80;100.00
69153;BME280;56261;51.580;4.578;2023-02-17T04:32:43;102021.00;;;9.81;100.00
69153;BME280;56261;51.580;4.578;2023-02-17T04:35:09;102030.22;;;9.77;100.00
69153;BME280;56261;51.580;4.578;2023-02-17T04:37:34;102042.00;;;9.74;100.00
69153;BME280;56261;51.580;4.578;2023-02-17T04:39:59;102037.22;;;9.68;100.00
69153;BME280;56261;51.580;4.578;2023-02-17T04:42:25;102025.72;;;9.68;100.00
69153;BME280;56261;51.580;4.578;2023-02-17T04:44:50;102024.41;;;9.62;100.00
69153;BME280;56261;51.580;4.578;2023-02-17T04:47:16;102032.41;;;9.62;100.00
69153;BME280;56261;51.580;4.578;2023-02-17T04:49:41;102025.69;;;9.58;100.00
69153;BME280;56261;51.580;4.578;2023-02-17T04:52:06;102019.78;;;9.54;100.00
69153;BME280;56261;51.580;4.578;2023-02-17T04:54:32;102025.41;;;9.61;100.00
69153;BME280;56261;51.580;4.578;2023-02-17T04:56:57;102017.81;;;9.56;100.00
69153;BME280;56261;51.580;4.578;2023-02-17T04:59:22;102010.25;;;9.62;100.00
69153;BME280;56261;51.580;4.578;2023-02-17T05:01:48;102009.00;;;9.56;100.00
69153;BME280;56261;51.580;4.578;2023-02-17T05:04:13;101999.59;;;9.62;100.00
69153;BME280;56261;51.580;4.578;2023-02-17T05:06:39;101997.50;;;9.55;100.00
69153;BME280;56261;51.580;4.578;2023-02-17T05:09:04;101988.53;;;9.56;100.00
69153;BME280;56261;51.580;4.578;2023-02-17T05:11:29;102002.44;;;9.60;100.00
69153;BME280;56261;51.580;4.578;2023-02-17T05:13:55;102013.75;;;9.62;100.00
69153;BME280;56261;51.580;4.578;2023-02-17T05:16:21;102008.00;;;9.57;100.00
69153;BME280;56261;51.580;4.578;2023-02-17T05:18:46;102007.59;;;9.62;100.00
69153;BME280;56261;51.580;4.578;2023-02-17T05:21:11;102011.97;;;9.63;100.00
69153;BME280;56261;51.580;4.578;2023-02-17T05:23:37;102008.75;;;9.69;100.00
69153;BME280;56261;51.580;4.578;2023-02-17T05:26:06;102004.53;;;9.66;100.00
69153;BME280;56261;51.580;4.578;2023-02-17T05:28:33;102011.09;;;9.62;100.00
69153;BME280;56261;51.580;4.578;2023-02-17T05:30:59;102013.50;;;9.65;100.00
69153;BME280;56261;51.580;4.578;2023-02-17T05:33:25;101998.66;;;9.63;100.00
69153;BME280;56261;51.580;4.578;2023-02-17T05:35:50;102002.44;;;9.70;100.00
69153;BME280;56261;51.580;4.578;2023-02-17T05:38:15;101990.38;;;9.66;100.00
69153;BME280;56261;51.580;4.578;2023-02-17T05:40:41;101998.38;;;9.66;100.00
69153;BME280;56261;51.580;4.578;2023-02-17T05:43:07;102017.72;;;9.68;100.00
69153;BME280;56261;51.580;4.578;2023-02-17T05:45:32;102010.41;;;9.60;100.00
69153;BME280;56261;51.580;4.578;2023-02-17T05:47:57;101998.66;;;9.63;100.00
69153;BME280;56261;51.580;4.578;2023-02-17T05:50:23;102001.03;;;9.66;100.00
69153;BME280;56261;51.580;4.578;2023-02-17T05:52:48;102002.56;;;9.68;100.00
69153;BME280;56261;51.580;4.578;2023-02-17T05:55:14;102010.16;;;9.73;100.00
69153;BME280;56261;51.580;4.578;2023-02-17T05:57:39;101998.25;;;9.67;100.00
69153;BME280;56261;51.580;4.578;2023-02-17T06:00:05;101993.94;;;9.76;100.00
69153;BME280;56261;51.580;4.578;2023-02-17T06:02:30;101991.78;;;9.70;100.00
69153;BME280;56261;51.580;4.578;2023-02-17T06:04:56;101980.31;;;9.69;100.00
69153;BME280;56261;51.580;4.578;2023-02-17T06:07:21;101970.19;;;9.73;100.00
69153;BME280;56261;51.580;4.578;2023-02-17T06:09:47;101981.84;;;9.72;100.00
69153;BME280;56261;51.580;4.578;2023-02-17T06:12:12;101974.81;;;9.71;100.00
69153;BME280;56261;51.580;4.578;2023-02-17T06:14:40;101986.19;;;9.73;100.00
69153;BME280;56261;51.580;4.578;2023-02-17T06:17:06;101986.19;;;9.73;100.00
69153;BME280;56261;51.580;4.578;2023-02-17T06:19:31;101979.06;;;9.73;100.00
69153;BME280;56261;51.580;4.578;2023-02-17T06:21:57;101977.47;;;9.71;100.00
69153;BME280;56261;51.580;4.578;2023-02-17T06:24:23;101973.72;;;9.73;100.00
69153;BME280;56261;51.580;4.578;2023-02-17T06:26:48;101979.19;;;9.82;100.00
69153;BME280;56261;51.580;4.578;2023-02-17T06:29:14;101978.66;;;9.78;100.00
69153;BME280;56261;51.580;4.578;2023-02-17T06:31:39;101971.75;;;9.75;100.00
69153;BME280;56261;51.580;4.578;2023-02-17T06:34:05;101966.88;;;9.81;100.00
69153;BME280;56261;51.580;4.578;2023-02-17T06:36:30;101968.69;;;9.80;100.00
69153;BME280;56261;51.580;4.578;2023-02-17T06:38:56;101970.25;;;9.83;100.00
69153;BME280;56261;51.580;4.578;2023-02-17T06:41:21;101980.91;;;9.83;100.00
69153;BME280;56261;51.580;4.578;2023-02-17T06:43:47;101990.88;;;9.90;100.00
69153;BME280;56261;51.580;4.578;2023-02-17T06:46:12;101985.25;;;9.84;100.00
69153;BME280;56261;51.580;4.578;2023-02-17T06:48:37;101979.78;;;9.85;100.00
69153;BME280;56261;51.580;4.578;2023-02-17T06:51:03;101972.91;;;9.92;100.00
69153;BME280;56261;51.580;4.578;2023-02-17T06:53:28;101975.88;;;9.89;100.00
69153;BME280;56261;51.580;4.578;2023-02-17T06:55:54;101989.31;;;9.97;100.00
69153;BME280;56261;51.580;4.578;2023-02-17T06:58:19;101975.28;;;9.95;100.00
69153;BME280;56261;51.580;4.578;2023-02-17T07:00:44;101971.53;;;9.98;100.00
69153;BME280;56261;51.580;4.578;2023-02-17T07:03:10;101974.19;;;9.98;100.00
69153;BME280;56261;51.580;4.578;2023-02-17T07:05:36;101971.66;;;9.96;100.00
69153;BME280;56261;51.580;4.578;2023-02-17T07:08:03;101977.16;;;10.05;100.00
69153;BME280;56261;51.580;4.578;2023-02-17T07:10:28;101985.28;;;10.03;100.00
69153;BME280;56261;51.580;4.578;2023-02-17T07:12:54;101961.00;;;9.96;100.00
69153;BME280;56261;51.580;4.578;2023-02-17T07:15:19;101973.09;;;10.10;100.00
69153;BME280;56261;51.580;4.578;2023-02-17T07:17:45;101975.47;;;10.04;100.00
69153;BME280;56261;51.580;4.578;2023-02-17T07:20:10;101982.50;;;10.05;100.00
69153;BME280;56261;51.580;4.578;2023-02-17T07:22:36;101983.88;;;10.09;100.00
69153;BME280;56261;51.580;4.578;2023-02-17T07:25:01;101987.81;;;10.14;100.00
69153;BME280;56261;51.580;4.578;2023-02-17T07:27:27;101976.44;;;10.22;100.00
69153;BME280;56261;51.580;4.578;2023-02-17T07:29:52;101970.41;;;10.10;100.00
69153;BME280;56261;51.580;4.578;2023-02-17T07:32:17;101975.63;;;10.22;100.00
69153;BME280;56261;51.580;4.578;2023-02-17T07:34:43;101970.41;;;10.20;100.00
69153;BME280;56261;51.580;4.578;2023-02-17T07:37:08;101952.16;;;10.15;100.00
69153;BME280;56261;51.580;4.578;2023-02-17T07:39:34;101977.03;;;10.26;100.00
69153;BME280;56261;51.580;4.578;2023-02-17T07:41:59;101978.28;;;10.22;100.00
69153;BME280;56261;51.580;4.578;2023-02-17T07:44:26;101938.56;;;10.28;100.00
69153;BME280;56261;51.580;4.578;2023-02-17T07:46:52;101953.63;;;10.39;100.00
69153;BME280;56261;51.580;4.578;2023-02-17T07:49:17;101956.28;;;10.39;100.00
69153;BME280;56261;51.580;4.578;2023-02-17T07:51:43;101961.06;;;10.35;100.00
69153;BME280;56261;51.580;4.578;2023-02-17T07:54:08;101963.59;;;10.37;100.00
69153;BME280;56261;51.580;4.578;2023-02-17T07:56:34;101970.75;;;10.36;100.00
69153;BME280;56261;51.580;4.578;2023-02-17T07:58:59;101952.78;;;10.38;100.00
69153;BME280;56261;51.580;4.578;2023-02-17T08:01:25;101974.13;;;10.38;100.00
69153;BME280;56261;51.580;4.578;2023-02-17T08:03:51;101960.91;;;10.37;100.00
69153;BME280;56261;51.580;4.578;2023-02-17T08:06:20;101980.44;;;10.37;100.00
69153;BME280;56261;51.580;4.578;2023-02-17T08:08:46;101968.50;;;10.32;100.00
69153;BME280;56261;51.580;4.578;2023-02-17T08:11:30;101969.50;;;10.41;100.00
69153;BME280;56261;51.580;4.578;2023-02-17T08:14:15;101993.34;;;10.42;100.00
69153;BME280;56261;51.580;4.578;2023-02-17T08:16:40;101959.94;;;10.48;100.00
69153;BME280;56261;51.580;4.578;2023-02-17T08:19:06;101979.16;;;10.51;100.00
69153;BME280;56261;51.580;4.578;2023-02-17T08:21:32;101984.66;;;10.50;100.00
69153;BME280;56261;51.580;4.578;2023-02-17T08:23:57;101993.22;;;10.44;100.00
69153;BME280;56261;51.580;4.578;2023-02-17T08:26:23;101999.25;;;10.46;100.00
69153;BME280;56261;51.580;4.578;2023-02-17T08:28:49;102018.88;;;10.45;100.00
69153;BME280;56261;51.580;4.578;2023-02-17T08:31:25;102016.94;;;10.56;100.00
69153;BME280;56261;51.580;4.578;2023-02-17T08:33:53;102025.78;;;10.57;100.00
69153;BME280;56261;51.580;4.578;2023-02-17T08:36:19;102023.38;;;10.64;100.00
69153;BME280;56261;51.580;4.578;2023-02-17T08:38:47;102022.41;;;10.65;100.00
69153;BME280;56261;51.580;4.578;2023-02-17T08:41:26;102022.25;;;10.66;100.00
69153;BME280;56261;51.580;4.578;2023-02-17T08:43:56;102028.03;;;10.62;100.00
69153;BME280;56261;51.580;4.578;2023-02-17T08:46:22;102027.19;;;10.61;100.00
69153;BME280;56261;51.580;4.578;2023-02-17T08:48:48;102025.34;;;10.71;100.00
69153;BME280;56261;51.580;4.578;2023-02-17T08:51:20;102036.00;;;10.71;100.00
69153;BME280;56261;51.580;4.578;2023-02-17T08:53:49;102053.84;;;10.71;100.00
69153;BME280;56261;51.580;4.578;2023-02-17T08:56:15;102051.19;;;10.71;100.00
69153;BME280;56261;51.580;4.578;2023-02-17T08:58:40;102041.78;;;10.67;100.00
69153;BME280;56261;51.580;4.578;2023-02-17T09:01:06;102051.47;;;10.68;100.00
69153;BME280;56261;51.580;4.578;2023-02-17T09:03:36;102051.19;;;10.71;100.00
69153;BME280;56261;51.580;4.578;2023-02-17T09:06:03;102056.81;;;10.68;100.00
69153;BME280;56261;51.580;4.578;2023-02-17T09:08:30;102050.91;;;10.64;100.00
69153;BME280;56261;51.580;4.578;2023-02-17T09:10:56;102045.31;;;10.67;100.00
69153;BME280;56261;51.580;4.578;2023-02-17T09:13:24;102051.31;;;10.69;100.00
69153;BME280;56261;51.580;4.578;2023-02-17T09:15:51;102057.34;;;10.71;100.00
69153;BME280;56261;51.580;4.578;2023-02-17T09:18:19;102068.03;;;10.71;100.00
69153;BME280;56261;51.580;4.578;2023-02-17T09:20:44;102065.53;;;10.70;100.00
69153;BME280;56261;51.580;4.578;2023-02-17T09:23:09;102046.56;;;10.73;100.00
69153;BME280;56261;51.580;4.578;2023-02-17T09:25:35;102071.56;;;10.82;100.00
69153;BME280;56261;51.580;4.578;2023-02-17T09:28:00;102072.13;;;10.66;100.00
69153;BME280;56261;51.580;4.578;2023-02-17T09:30:26;102069.44;;;10.75;100.00
69153;BME280;56261;51.580;4.578;2023-02-17T09:32:51;102069.19;;;10.78;100.00
69153;BME280;56261;51.580;4.578;2023-02-17T09:35:17;102075.91;;;10.73;100.00
69153;BME280;56261;51.580;4.578;2023-02-17T09:37:43;102069.72;;;10.82;100.00
69153;BME280;56261;51.580;4.578;2023-02-17T09:42:45;102054.53;;;10.83;100.00
69153;BME280;56261;51.580;4.578;2023-02-17T09:45:17;102062.72;;;10.81;100.00
69153;BME280;56261;51.580;4.578;2023-02-17T09:47:54;102051.31;;;10.89;100.00
69153;BME280;56261;51.580;4.578;2023-02-17T09:50:26;102057.91;;;10.85;100.00
69153;BME280;56261;51.580;4.578;2023-02-17T09:53:03;102073.38;;;10.91;100.00
69153;BME280;56261;51.580;4.578;2023-02-17T09:55:35;102067.91;;;10.92;100.00
69153;BME280;56261;51.580;4.578;2023-02-17T09:58:12;102070.13;;;10.87;100.00
69153;BME280;56261;51.580;4.578;2023-02-17T10:00:43;102063.53;;;10.91;100.00
69153;BME280;56261;51.580;4.578;2023-02-17T10:03:29;102075.50;;;10.97;100.00
69153;BME280;56261;51.580;4.578;2023-02-17T10:08:39;102110.63;;;10.92;100.00
69153;BME280;56261;51.580;4.578;2023-02-17T10:13:46;102096.28;;;10.93;100.00
69153;BME280;56261;51.580;4.578;2023-02-17T10:16:19;102102.72;;;11.00;100.00
69153;BME280;56261;51.580;4.578;2023-02-17T10:18:56;102094.44;;;10.94;100.00
69153;BME280;56261;51.580;4.578;2023-02-17T10:21:46;102086.88;;;10.99;100.00
69153;BME280;56261;51.580;4.578;2023-02-17T10:24:12;102088.84;;;10.97;100.00
69153;BME280;56261;51.580;4.578;2023-02-17T10:26:56;102092.03;;;11.00;100.00
69153;BME280;56261;51.580;4.578;2023-02-17T10:32:20;102081.22;;;11.12;100.00
69153;BME280;56261;51.580;4.578;2023-02-17T10:39:54;102122.66;;;11.16;100.00
69153;BME280;56261;51.580;4.578;2023-02-17T10:42:25;102115.25;;;11.10;100.00
69153;BME280;56261;51.580;4.578;2023-02-17T10:44:57;102132.81;;;11.12;100.00
69153;BME280;56261;51.580;4.578;2023-02-17T10:47:24;102131.56;;;11.16;100.00
69153;BME280;56261;51.580;4.578;2023-02-17T10:49:51;102134.06;;;11.18;100.00
69153;BME280;56261;51.580;4.578;2023-02-17T10:52:20;102109.75;;;11.11;100.00
69153;BME280;56261;51.580;4.578;2023-02-17T10:54:56;102102.16;;;11.26;100.00
69153;BME280;56261;51.580;4.578;2023-02-17T10:57:26;102109.03;;;11.29;100.00
69153;BME280;56261;51.580;4.578;2023-02-17T10:59:54;102133.91;;;11.29;100.00
69153;BME280;56261;51.580;4.578;2023-02-17T11:02:45;102127.16;;;11.35;100.00
69153;BME280;56261;51.580;4.578;2023-02-17T11:05:22;102124.50;;;11.35;100.00
69153;BME280;56261;51.580;4.578;2023-02-17T11:07:54;102110.28;;;11.44;100.00
69153;BME280;56261;51.580;4.578;2023-02-17T11:10:39;102127.97;;;11.45;100.00
69153;BME280;56261;51.580;4.578;2023-02-17T11:13:32;102136.25;;;11.52;100.00
69153;BME280;56261;51.580;4.578;2023-02-17T11:15:59;102114.88;;;11.52;100.00
69153;BME280;56261;51.580;4.578;2023-02-17T11:18:27;102093.81;;;11.49;100.00
69153;BME280;56261;51.580;4.578;2023-02-17T11:21:07;102097.75;;;11.54;100.00
69153;BME280;56261;51.580;4.578;2023-02-17T11:23:34;102077.19;;;11.55;100.00
69153;BME280;56261;51.580;4.578;2023-02-17T11:26:09;102086.44;;;11.60;100.00
69153;BME280;56261;51.580;4.578;2023-02-17T11:28:35;102076.75;;;11.59;100.00
69153;BME280;56261;51.580;4.578;2023-02-17T11:31:01;102086.44;;;11.60;100.00
69153;BME280;56261;51.580;4.578;2023-02-17T11:33:30;102110.63;;;11.69;100.00
69153;BME280;56261;51.580;4.578;2023-02-17T11:35:56;102092.50;;;11.62;100.00
69153;BME280;56261;51.580;4.578;2023-02-17T11:38:25;102083.69;;;11.52;100.00
69153;BME280;56261;51.580;4.578;2023-02-17T11:41:02;102109.66;;;11.60;100.00
69153;BME280;56261;51.580;4.578;2023-02-17T11:43:30;102099.44;;;11.46;100.00
69153;BME280;56261;51.580;4.578;2023-02-17T12:08:04;102131.91;;;11.51;100.00
69153;BME280;56261;51.580;4.578;2023-02-17T12:11:08;102126.00;;;11.47;100.00
69153;BME280;56261;51.580;4.578;2023-02-17T12:14:04;102134.31;;;11.44;100.00
69153;BME280;56261;51.580;4.578;2023-02-17T12:22:29;102133.31;;;11.55;100.00
69153;BME280;56261;51.580;4.578;2023-02-17T12:35:52;102174.53;;;11.52;100.00
69153;BME280;56261;51.580;4.578;2023-02-17T12:38:29;102166.25;;;11.46;100.00
69153;BME280;56261;51.580;4.578;2023-02-17T12:41:02;102146.25;;;11.50;100.00
69153;BME280;56261;51.580;4.578;2023-02-17T12:43:48;102152.88;;;11.46;100.00
69153;BME280;56261;51.580;4.578;2023-02-17T12:46:16;102168.34;;;11.42;100.00
69153;BME280;56261;51.580;4.578;2023-02-17T12:48:52;102177.06;;;11.44;100.00
69153;BME280;56261;51.580;4.578;2023-02-17T12:51:31;102166.94;;;11.48;100.00
69153;BME280;56261;51.580;4.578;2023-02-17T12:54:25;102168.63;;;11.49;100.00
69153;BME280;56261;51.580;4.578;2023-02-17T12:59:43;102165.91;;;11.68;100.00
69153;BME280;56261;51.580;4.578;2023-02-17T13:02:14;102153.13;;;11.62;100.00
69153;BME280;56261;51.580;4.578;2023-02-17T13:04:41;102170.25;;;11.69;100.00
69153;BME280;56261;51.580;4.578;2023-02-17T13:09:38;102170.81;;;11.63;100.00
69153;BME280;56261;51.580;4.578;2023-02-17T13:14:56;102179.16;;;11.60;100.00
69153;BME280;56261;51.580;4.578;2023-02-17T13:17:33;102199.69;;;11.50;100.00
69153;BME280;56261;51.580;4.578;2023-02-17T13:22:41;102201.41;;;11.41;100.00
69153;BME280;56261;51.580;4.578;2023-02-17T13:25:12;102197.72;;;11.42;100.00
69153;BME280;56261;51.580;4.578;2023-02-17T13:27:38;102197.31;;;11.37;100.00
69153;BME280;56261;51.580;4.578;2023-02-17T13:32:43;102203.22;;;11.31;100.00
69153;BME280;56261;51.580;4.578;2023-02-17T13:37:53;102200.97;;;11.36;100.00
69153;BME280;56261;51.580;4.578;2023-02-17T13:42:44;102216.44;;;11.32;100.00
69153;BME280;56261;51.580;4.578;2023-02-17T13:45:23;102233.88;;;11.36;100.00
69153;BME280;56261;51.580;4.578;2023-02-17T13:47:52;102233.88;;;11.36;100.00
69153;BME280;56261;51.580;4.578;2023-02-17T13:50:36;102227.25;;;11.31;100.00
69153;BME280;56261;51.580;4.578;2023-02-17T13:53:18;102227.53;;;11.37;100.00
69153;BME280;56261;51.580;4.578;2023-02-17T13:55:45;102210.41;;;11.30;100.00
69153;BME280;56261;51.580;4.578;2023-02-17T13:58:11;102207.72;;;11.30;100.00
69153;BME280;56261;51.580;4.578;2023-02-17T14:00:36;102214.88;;;11.39;100.00
69153;BME280;56261;51.580;4.578;2023-02-17T14:03:21;102224.84;;;11.47;100.00
69153;BME280;56261;51.580;4.578;2023-02-17T14:05:48;102224.16;;;11.64;100.00
69153;BME280;56261;51.580;4.578;2023-02-17T14:08:23;102225.97;;;11.64;100.00
69153;BME280;56261;51.580;4.578;2023-02-17T14:10:51;102242.59;;;11.68;100.00
69153;BME280;56261;51.580;4.578;2023-02-17T14:13:17;102237.91;;;11.70;100.00
69153;BME280;56261;51.580;4.578;2023-02-17T14:15:54;102231.75;;;11.79;100.00
69153;BME280;56261;51.580;4.578;2023-02-17T14:18:29;102216.41;;;11.71;100.00
69153;BME280;56261;51.580;4.578;2023-02-17T14:23:39;102194.97;;;11.81;100.00
69153;BME280;56261;51.580;4.578;2023-02-17T14:26:36;102199.94;;;11.76;100.00
69153;BME280;56261;51.580;4.578;2023-02-17T14:29:00;102214.84;;;11.69;100.00
69153;BME280;56261;51.580;4.578;2023-02-17T14:31:27;102225.81;;;11.75;100.00
69153;BME280;56261;51.580;4.578;2023-02-17T14:36:33;102199.97;;;11.66;100.00
69153;BME280;56261;51.580;4.578;2023-02-17T14:38:59;102218.94;;;11.53;100.00
69153;BME280;56261;51.580;4.578;2023-02-17T14:41:25;102223.72;;;11.59;100.00